Time;durP1;ratioP1;P1;durP2;ratioP2;P2;SDS_P1;SDS_P2;PMS_P1;PMS_P2;Temp;Humidity;BMP_temperature;BMP_pressure;BME280_temperature;BME280_humidity;BME280_pressure;Samples;Min_cycle;Max_cycle;Signal;HPM_P1;HPM_P2
2024/04/16 00:00:37;;;;;;;0.65;0.55;;;;;;;;;;5362922;26;20339;-70
2024/04/16 00:03:03;;;;;;;4.75;0.93;;;;;;;;;;5366525;26;20076;-71
2024/04/16 00:05:29;;;;;;;2.00;0.77;;;;;;;;;;5359286;26;20024;-70
2024/04/16 00:07:56;;;;;;;0.88;0.80;;;;;;;;;;5353724;26;20149;-70
2024/04/16 00:10:22;;;;;;;1.55;0.70;;;;;;;;;;5355523;26;20011;-71
2024/04/16 00:12:48;;;;;;;0.80;0.70;;;;;;;;;;5357775;26;20425;-70
2024/04/16 00:15:14;;;;;;;0.82;0.70;;;;;;;;;;5362849;26;19992;-71
2024/04/16 00:17:40;;;;;;;0.68;0.60;;;;;;;;;;5364592;26;20004;-70
2024/04/16 00:20:06;;;;;;;2.00;0.63;;;;;;;;;;5363005;26;20428;-70
2024/04/16 00:22:32;;;;;;;1.15;0.68;;;;;;;;;;5363824;26;20066;-72
2024/04/16 00:24:58;;;;;;;0.93;0.80;;;;;;;;;;5358089;26;20064;-70
2024/04/16 00:27:24;;;;;;;1.58;0.80;;;;;;;;;;5360512;26;20014;-70
2024/04/16 00:29:50;;;;;;;3.05;0.90;;;;;;;;;;5363562;26;20441;-70
2024/04/16 00:32:16;;;;;;;1.55;0.90;;;;;;;;;;5368631;26;20443;-70
2024/04/16 00:34:42;;;;;;;0.85;0.70;;;;;;;;;;5368525;26;20011;-71
2024/04/16 00:37:08;;;;;;;3.80;1.05;;;;;;;;;;5366891;26;20011;-71
2024/04/16 00:39:34;;;;;;;3.03;0.90;;;;;;;;;;5349319;26;20020;-71
2024/04/16 00:42:00;;;;;;;0.88;0.77;;;;;;;;;;5359445;26;20382;-71
2024/04/16 00:44:27;;;;;;;2.83;1.10;;;;;;;;;;5354118;26;20000;-70
2024/04/16 00:46:53;;;;;;;2.20;0.77;;;;;;;;;;5363300;26;20015;-71
2024/04/16 00:49:19;;;;;;;5.00;1.48;;;;;;;;;;5364818;26;20008;-70
2024/04/16 00:51:45;;;;;;;0.95;0.65;;;;;;;;;;5361894;26;20011;-70
2024/04/16 00:54:12;;;;;;;4.43;0.93;;;;;;;;;;5355813;26;20330;-71
2024/04/16 00:56:38;;;;;;;3.00;0.85;;;;;;;;;;5354728;26;20004;-71
2024/04/16 00:59:04;;;;;;;0.95;0.73;;;;;;;;;;5362877;26;20006;-70
2024/04/16 01:01:31;;;;;;;2.17;0.90;;;;;;;;;;5364675;26;20301;-71
2024/04/16 01:03:56;;;;;;;2.05;1.08;;;;;;;;;;5362566;26;20015;-70
2024/04/16 01:06:23;;;;;;;3.22;1.15;;;;;;;;;;5360052;26;20008;-71
2024/04/16 01:08:49;;;;;;;3.33;1.00;;;;;;;;;;5366402;26;20390;-70
2024/04/16 01:11:25;;;;;;;1.83;0.90;;;;;;;;;;5364106;26;20014;-72
2024/04/16 01:13:51;;;;;;;0.80;0.80;;;;;;;;;;5355606;26;19996;-71
2024/04/16 01:16:17;;;;;;;1.02;0.70;;;;;;;;;;5338947;26;20015;-70
2024/04/16 01:18:43;;;;;;;1.67;1.00;;;;;;;;;;5350023;26;20000;-71
2024/04/16 01:21:08;;;;;;;1.58;1.02;;;;;;;;;;5360208;26;20044;-70
2024/04/16 01:23:34;;;;;;;0.80;0.80;;;;;;;;;;5353997;26;20061;-70
2024/04/16 01:26:00;;;;;;;1.55;0.90;;;;;;;;;;5363832;26;20421;-70
2024/04/16 01:28:26;;;;;;;2.78;0.90;;;;;;;;;;5368082;26;20184;-70
2024/04/16 01:30:52;;;;;;;2.25;1.25;;;;;;;;;;5369441;26;20557;-71
2024/04/16 01:33:18;;;;;;;2.53;1.02;;;;;;;;;;5367253;26;19996;-71
2024/04/16 01:35:44;;;;;;;1.20;0.85;;;;;;;;;;5368932;26;20032;-70
2024/04/16 01:38:10;;;;;;;0.93;0.60;;;;;;;;;;5365049;26;20080;-71
2024/04/16 01:40:36;;;;;;;1.25;0.80;;;;;;;;;;5354825;26;20009;-71
2024/04/16 01:43:01;;;;;;;1.10;0.80;;;;;;;;;;5364199;26;20000;-71
2024/04/16 01:45:27;;;;;;;1.42;1.00;;;;;;;;;;5363670;26;20044;-70
2024/04/16 01:47:53;;;;;;;0.65;0.60;;;;;;;;;;5366959;26;20030;-71
2024/04/16 01:50:19;;;;;;;1.00;0.90;;;;;;;;;;5359667;26;20011;-71
2024/04/16 01:52:45;;;;;;;1.30;0.70;;;;;;;;;;5357435;26;20055;-70
2024/04/16 01:55:11;;;;;;;1.90;1.00;;;;;;;;;;5360811;26;20503;-71
2024/04/16 01:57:37;;;;;;;3.00;0.93;;;;;;;;;;5363105;26;20004;-71
2024/04/16 02:00:04;;;;;;;1.67;1.00;;;;;;;;;;5354701;26;20393;-70
2024/04/16 02:02:31;;;;;;;0.90;0.70;;;;;;;;;;5362934;26;20489;-71
2024/04/16 02:04:57;;;;;;;1.85;1.15;;;;;;;;;;5360498;26;20008;-71
2024/04/16 02:07:23;;;;;;;1.15;0.82;;;;;;;;;;5350810;26;20378;-70
2024/04/16 02:09:49;;;;;;;4.03;0.90;;;;;;;;;;5360750;26;19997;-71
2024/04/16 02:12:15;;;;;;;1.10;0.70;;;;;;;;;;5365037;26;20506;-71
2024/04/16 02:14:41;;;;;;;2.17;0.90;;;;;;;;;;5354037;26;20015;-71
2024/04/16 02:17:07;;;;;;;1.38;0.77;;;;;;;;;;5371007;26;19996;-70
2024/04/16 02:19:34;;;;;;;2.28;0.93;;;;;;;;;;5369310;26;20000;-70
2024/04/16 02:22:00;;;;;;;0.70;0.70;;;;;;;;;;5353837;26;20009;-71
2024/04/16 02:24:26;;;;;;;1.15;0.77;;;;;;;;;;5358577;26;20011;-70
2024/04/16 02:26:52;;;;;;;1.20;0.98;;;;;;;;;;5361268;26;20061;-71
2024/04/16 02:29:17;;;;;;;2.42;0.95;;;;;;;;;;5355200;26;20007;-72
2024/04/16 02:31:43;;;;;;;1.50;0.93;;;;;;;;;;5357846;26;20001;-72
2024/04/16 02:34:09;;;;;;;1.40;1.00;;;;;;;;;;5368469;26;20143;-71
2024/04/16 02:36:38;;;;;;;0.80;0.68;;;;;;;;;;5371501;26;20421;-70
2024/04/16 02:39:04;;;;;;;1.23;0.70;;;;;;;;;;5369006;26;20031;-70
2024/04/16 02:41:31;;;;;;;0.90;0.70;;;;;;;;;;5356555;26;20493;-71
2024/04/16 02:43:57;;;;;;;0.90;0.70;;;;;;;;;;5367252;26;20115;-71
2024/04/16 02:46:23;;;;;;;2.42;0.90;;;;;;;;;;5363905;26;20397;-71
2024/04/16 02:48:49;;;;;;;0.85;0.82;;;;;;;;;;5361539;26;20110;-70
2024/04/16 02:51:15;;;;;;;1.58;1.10;;;;;;;;;;5358325;26;20015;-70
2024/04/16 02:53:41;;;;;;;1.00;0.80;;;;;;;;;;5363589;26;20078;-72
2024/04/16 02:56:07;;;;;;;0.82;0.70;;;;;;;;;;5365396;26;20391;-71
2024/04/16 02:58:33;;;;;;;0.88;0.80;;;;;;;;;;5357815;26;20149;-71
2024/04/16 03:01:04;;;;;;;1.42;0.80;;;;;;;;;;5365332;26;20015;-71
2024/04/16 03:03:30;;;;;;;;;;;;;;;;;;5363955;26;20028;-71
2024/04/16 03:05:56;;;;;;;0.93;0.70;;;;;;;;;;5365472;26;20215;-71
2024/04/16 03:08:22;;;;;;;0.80;0.77;;;;;;;;;;5361265;26;20126;-71
2024/04/16 03:10:48;;;;;;;0.70;0.65;;;;;;;;;;5353147;26;20020;-71
2024/04/16 03:13:14;;;;;;;1.23;0.77;;;;;;;;;;5356140;26;20001;-71
2024/04/16 03:15:40;;;;;;;0.85;0.68;;;;;;;;;;5363268;26;20178;-70
2024/04/16 03:18:06;;;;;;;0.68;0.65;;;;;;;;;;5352867;26;20012;-71
2024/04/16 03:20:32;;;;;;;1.33;0.73;;;;;;;;;;5362251;26;20155;-70
2024/04/16 03:22:57;;;;;;;1.10;0.77;;;;;;;;;;5353969;26;20417;-73
2024/04/16 03:25:24;;;;;;;1.42;0.70;;;;;;;;;;5350496;26;20018;-71
2024/04/16 03:27:52;;;;;;;0.73;0.68;;;;;;;;;;5362108;26;20012;-70
2024/04/16 03:30:18;;;;;;;1.05;0.57;;;;;;;;;;5369140;26;20282;-70
2024/04/16 03:32:44;;;;;;;0.60;0.57;;;;;;;;;;5368269;26;20036;-71
2024/04/16 03:35:10;;;;;;;0.75;0.60;;;;;;;;;;5364715;26;20028;-70
2024/04/16 03:37:36;;;;;;;0.65;0.52;;;;;;;;;;5365294;26;20387;-71
2024/04/16 03:40:02;;;;;;;0.60;0.60;;;;;;;;;;5359455;26;20309;-71
2024/04/16 03:42:28;;;;;;;0.77;0.43;;;;;;;;;;5363920;26;20011;-71
2024/04/16 03:44:54;;;;;;;0.95;0.60;;;;;;;;;;5357228;26;20097;-72
2024/04/16 03:47:21;;;;;;;1.45;0.70;;;;;;;;;;5360651;26;20068;-70
2024/04/16 03:49:47;;;;;;;0.80;0.57;;;;;;;;;;5368531;26;20075;-71
2024/04/16 03:52:13;;;;;;;1.27;0.80;;;;;;;;;;5365689;26;19996;-70
2024/04/16 03:54:38;;;;;;;1.63;0.70;;;;;;;;;;5360582;26;20001;-71
2024/04/16 03:57:04;;;;;;;1.27;0.60;;;;;;;;;;5366540;26;20000;-70
2024/04/16 04:02:19;;;;;;;0.90;0.60;;;;;;;;;;5362130;26;20090;-71
2024/04/16 04:04:45;;;;;;;0.95;0.65;;;;;;;;;;5355423;26;20349;-71
2024/04/16 04:07:11;;;;;;;0.40;0.40;;;;;;;;;;5356967;26;20132;-71
2024/04/16 04:09:37;;;;;;;1.17;0.60;;;;;;;;;;5358424;26;20131;-71
2024/04/16 04:12:03;;;;;;;1.05;0.95;;;;;;;;;;5363015;26;20080;-71
2024/04/16 04:14:29;;;;;;;0.52;0.50;;;;;;;;;;5361164;26;20033;-71
2024/04/16 04:16:55;;;;;;;0.93;0.70;;;;;;;;;;5355014;26;20087;-71
2024/04/16 04:19:21;;;;;;;0.63;0.50;;;;;;;;;;5365284;26;19996;-71
2024/04/16 04:21:47;;;;;;;0.80;0.70;;;;;;;;;;5366802;26;20007;-71
2024/04/16 04:24:17;;;;;;;0.30;0.30;;;;;;;;;;5359065;26;20398;-70
2024/04/16 04:26:43;;;;;;;0.40;0.40;;;;;;;;;;5363629;26;20119;-70
2024/04/16 04:29:08;;;;;;;0.60;0.60;;;;;;;;;;5355220;26;20425;-69
2024/04/16 04:31:34;;;;;;;1.35;0.57;;;;;;;;;;5355297;26;20444;-69
2024/04/16 04:34:01;;;;;;;1.75;0.77;;;;;;;;;;5367110;26;20111;-68
2024/04/16 04:36:27;;;;;;;0.40;0.40;;;;;;;;;;5370781;26;20032;-69
2024/04/16 04:38:53;;;;;;;0.80;0.50;;;;;;;;;;5367331;26;20015;-70
2024/04/16 04:41:19;;;;;;;0.50;0.50;;;;;;;;;;5368010;26;20056;-68
2024/04/16 04:43:45;;;;;;;0.80;0.55;;;;;;;;;;5364105;26;20103;-69
2024/04/16 04:46:11;;;;;;;1.15;0.70;;;;;;;;;;5353174;26;20007;-69
2024/04/16 04:48:37;;;;;;;0.80;0.50;;;;;;;;;;5349320;26;20016;-68
2024/04/16 04:51:03;;;;;;;0.43;0.43;;;;;;;;;;5361838;26;20118;-68
2024/04/16 04:53:29;;;;;;;0.63;0.57;;;;;;;;;;5358321;26;20087;-69
2024/04/16 04:55:55;;;;;;;0.50;0.50;;;;;;;;;;5351621;26;20021;-69
2024/04/16 04:58:21;;;;;;;0.93;0.73;;;;;;;;;;5356143;26;20334;-69
2024/04/16 05:00:48;;;;;;;0.50;0.50;;;;;;;;;;5364166;26;20041;-69
2024/04/16 05:03:14;;;;;;;1.20;0.90;;;;;;;;;;5359185;26;20310;-68
2024/04/16 05:05:45;;;;;;;1.05;0.73;;;;;;;;;;5361940;26;20081;-69
2024/04/16 05:08:11;;;;;;;1.02;0.68;;;;;;;;;;5358739;26;20594;-68
2024/04/16 05:10:37;;;;;;;2.85;1.38;;;;;;;;;;5363330;26;20001;-68
2024/04/16 05:13:03;;;;;;;1.15;0.88;;;;;;;;;;5366070;26;20015;-69
2024/04/16 05:15:29;;;;;;;2.03;0.80;;;;;;;;;;5367219;26;20001;-69
2024/04/16 05:17:54;;;;;;;1.70;0.63;;;;;;;;;;5369368;26;20004;-68
2024/04/16 05:20:20;;;;;;;0.95;0.80;;;;;;;;;;5371160;26;20107;-69
2024/04/16 05:22:48;;;;;;;1.70;1.05;;;;;;;;;;5368610;26;20112;-68
2024/04/16 05:25:14;;;;;;;2.22;0.80;;;;;;;;;;5354702;26;20155;-69
2024/04/16 05:27:40;;;;;;;1.50;0.90;;;;;;;;;;5362500;26;21102;-68
2024/04/16 05:30:06;;;;;;;1.33;0.93;;;;;;;;;;5363848;26;20000;-68
2024/04/16 05:32:32;;;;;;;1.05;0.73;;;;;;;;;;5368058;26;20004;-69
2024/04/16 05:34:58;;;;;;;2.17;0.98;;;;;;;;;;5367498;26;20339;-68
2024/04/16 05:37:24;;;;;;;2.22;1.15;;;;;;;;;;5351962;26;20083;-68
2024/04/16 05:39:50;;;;;;;1.85;1.00;;;;;;;;;;5359400;26;20008;-70
2024/04/16 05:42:16;;;;;;;2.80;1.20;;;;;;;;;;5368508;26;20066;-69
2024/04/16 05:44:42;;;;;;;2.88;1.08;;;;;;;;;;5361732;26;20119;-69
2024/04/16 05:47:08;;;;;;;0.95;0.70;;;;;;;;;;5363344;26;20107;-69
2024/04/16 05:49:34;;;;;;;1.02;0.85;;;;;;;;;;5360523;26;19996;-70
2024/04/16 05:52:00;;;;;;;3.05;1.35;;;;;;;;;;5360192;26;20081;-69
2024/04/16 05:54:27;;;;;;;1.95;1.13;;;;;;;;;;5361238;26;20001;-70
2024/04/16 05:56:53;;;;;;;2.08;1.13;;;;;;;;;;5363615;26;20010;-72
2024/04/16 05:59:19;;;;;;;2.00;1.02;;;;;;;;;;5351641;26;20015;-69
2024/04/16 06:01:46;;;;;;;1.52;1.10;;;;;;;;;;5363328;26;20028;-69
2024/04/16 06:04:11;;;;;;;0.98;0.80;;;;;;;;;;5360579;26;20163;-69
2024/04/16 06:06:37;;;;;;;1.90;1.05;;;;;;;;;;5362718;26;20749;-68
2024/04/16 06:09:06;;;;;;;1.35;0.80;;;;;;;;;;5366825;26;19996;-68
2024/04/16 06:11:32;;;;;;;1.05;0.77;;;;;;;;;;5368145;26;20456;-69
2024/04/16 06:13:58;;;;;;;1.45;1.08;;;;;;;;;;5363904;26;20385;-69
2024/04/16 06:16:27;;;;;;;1.42;0.85;;;;;;;;;;5372287;26;20429;-69
2024/04/16 06:18:53;;;;;;;1.40;0.85;;;;;;;;;;5366697;26;20289;-69
2024/04/16 06:21:19;;;;;;;2.35;1.50;;;;;;;;;;5373291;26;20432;-69
2024/04/16 06:23:48;;;;;;;2.33;1.30;;;;;;;;;;5356192;26;20024;-69
2024/04/16 06:26:14;;;;;;;2.63;1.27;;;;;;;;;;5371125;26;20004;-69
2024/04/16 06:28:40;;;;;;;2.20;1.00;;;;;;;;;;5348246;26;20004;-69
2024/04/16 06:31:06;;;;;;;1.20;1.00;;;;;;;;;;5366192;26;20389;-69
2024/04/16 06:33:36;;;;;;;1.00;0.75;;;;;;;;;;5359032;26;19996;-69
2024/04/16 06:36:02;;;;;;;1.33;0.88;;;;;;;;;;5370624;26;19997;-68
2024/04/16 06:38:28;;;;;;;1.63;1.15;;;;;;;;;;5361694;26;20088;-68
2024/04/16 06:40:54;;;;;;;2.20;1.23;;;;;;;;;;5358249;26;20242;-69
2024/04/16 06:43:20;;;;;;;1.90;1.15;;;;;;;;;;5358851;26;20011;-70
2024/04/16 06:45:46;;;;;;;4.97;1.10;;;;;;;;;;5359507;26;20333;-69
2024/04/16 06:48:12;;;;;;;2.85;1.67;;;;;;;;;;5369377;26;20014;-69
2024/04/16 06:50:38;;;;;;;1.17;1.02;;;;;;;;;;5368608;26;20000;-69
2024/04/16 06:53:04;;;;;;;1.13;0.68;;;;;;;;;;5362919;26;20420;-69
2024/04/16 06:55:30;;;;;;;1.20;0.85;;;;;;;;;;5366948;26;20000;-69
2024/04/16 06:57:57;;;;;;;1.13;0.88;;;;;;;;;;5368935;26;19998;-69
2024/04/16 07:00:23;;;;;;;1.70;1.05;;;;;;;;;;5365886;26;19997;-69
2024/04/16 07:02:49;;;;;;;1.52;1.00;;;;;;;;;;5363711;26;20309;-69
2024/04/16 07:05:15;;;;;;;1.48;0.80;;;;;;;;;;5365113;26;20004;-69
2024/04/16 07:07:41;;;;;;;1.38;0.75;;;;;;;;;;5359779;26;20111;-70
2024/04/16 07:10:07;;;;;;;2.35;1.08;;;;;;;;;;5367218;26;20001;-68
2024/04/16 07:12:33;;;;;;;1.83;1.08;;;;;;;;;;5350644;26;20080;-69
2024/04/16 07:14:59;;;;;;;1.10;1.00;;;;;;;;;;5362524;26;20011;-69
2024/04/16 07:17:25;;;;;;;2.78;0.85;;;;;;;;;;5366729;26;20425;-68
2024/04/16 07:19:51;;;;;;;1.92;1.00;;;;;;;;;;5372512;26;19996;-69
2024/04/16 07:22:16;;;;;;;2.63;1.15;;;;;;;;;;5369806;26;20035;-70
2024/04/16 07:24:43;;;;;;;1.65;0.70;;;;;;;;;;5365123;26;20077;-69
2024/04/16 07:27:09;;;;;;;1.70;1.35;;;;;;;;;;5369599;26;20004;-69
2024/04/16 07:29:35;;;;;;;1.95;1.00;;;;;;;;;;5370809;26;20209;-69
2024/04/16 07:32:01;;;;;;;2.55;1.00;;;;;;;;;;5359200;26;20105;-69
2024/04/16 07:34:27;;;;;;;3.28;0.73;;;;;;;;;;5360442;26;20106;-69
2024/04/16 07:36:53;;;;;;;1.83;1.02;;;;;;;;;;5368177;26;20004;-69
2024/04/16 07:39:19;;;;;;;2.13;1.23;;;;;;;;;;5365201;26;20435;-69
2024/04/16 07:41:45;;;;;;;1.80;1.30;;;;;;;;;;5364644;26;20000;-70
2024/04/16 07:44:11;;;;;;;2.60;1.17;;;;;;;;;;5371415;26;20008;-70
2024/04/16 07:46:37;;;;;;;2.30;1.02;;;;;;;;;;5364870;26;20000;-70
2024/04/16 07:49:03;;;;;;;1.35;1.05;;;;;;;;;;5356290;26;20036;-70
2024/04/16 07:51:29;;;;;;;1.65;0.85;;;;;;;;;;5346746;26;20001;-69
2024/04/16 07:53:55;;;;;;;3.85;0.93;;;;;;;;;;5361628;26;20379;-69
2024/04/16 07:56:21;;;;;;;1.23;0.93;;;;;;;;;;5369192;26;20032;-69
2024/04/16 07:58:47;;;;;;;1.88;1.25;;;;;;;;;;5367192;26;21620;-69
2024/04/16 08:01:14;;;;;;;2.38;1.15;;;;;;;;;;5356598;26;20012;-69
2024/04/16 08:03:40;;;;;;;1.58;1.00;;;;;;;;;;5370815;26;20422;-69
2024/04/16 08:06:06;;;;;;;1.70;1.10;;;;;;;;;;5365851;26;20139;-69
2024/04/16 08:08:32;;;;;;;2.80;1.15;;;;;;;;;;5363644;26;20353;-69
2024/04/16 08:11:06;;;;;;;2.05;1.02;;;;;;;;;;5359691;26;20024;-69
2024/04/16 08:13:33;;;;;;;4.82;1.52;;;;;;;;;;5367983;26;20016;-70
2024/04/16 08:15:59;;;;;;;4.40;1.35;;;;;;;;;;5366426;26;20103;-68
2024/04/16 08:18:26;;;;;;;2.28;0.95;;;;;;;;;;5364672;26;20051;-69
2024/04/16 08:20:52;;;;;;;1.85;1.10;;;;;;;;;;5358071;26;20005;-70
2024/04/16 08:23:20;;;;;;;2.78;1.20;;;;;;;;;;5362370;26;20004;-69
2024/04/16 08:25:46;;;;;;;3.22;1.48;;;;;;;;;;5363616;26;20068;-69
2024/04/16 08:28:12;;;;;;;1.40;0.73;;;;;;;;;;5348881;26;20008;-69
2024/04/16 08:30:38;;;;;;;1.58;1.10;;;;;;;;;;5365414;26;20000;-69
2024/04/16 08:33:04;;;;;;;2.10;0.82;;;;;;;;;;5354255;26;20013;-69
2024/04/16 08:35:31;;;;;;;3.67;1.65;;;;;;;;;;5364713;26;20036;-69
2024/04/16 08:37:57;;;;;;;1.70;0.95;;;;;;;;;;5369871;26;20381;-69
2024/04/16 08:40:23;;;;;;;1.08;0.98;;;;;;;;;;5351602;26;20000;-69
2024/04/16 08:42:51;;;;;;;1.27;0.90;;;;;;;;;;5363540;26;20032;-69
2024/04/16 08:45:19;;;;;;;3.85;1.50;;;;;;;;;;5352097;26;20065;-68
2024/04/16 08:47:47;;;;;;;1.48;1.02;;;;;;;;;;5358037;26;20436;-69
2024/04/16 08:50:13;;;;;;;1.60;1.08;;;;;;;;;;5358691;26;20373;-69
2024/04/16 08:52:40;;;;;;;0.98;0.88;;;;;;;;;;5350622;26;20000;-69
2024/04/16 08:55:07;;;;;;;2.08;1.15;;;;;;;;;;5356734;26;20129;-69
2024/04/16 08:57:33;;;;;;;0.63;0.50;;;;;;;;;;5367679;26;20011;-69
2024/04/16 08:59:59;;;;;;;1.08;0.70;;;;;;;;;;5360003;26;20005;-68
2024/04/16 09:02:26;;;;;;;0.85;0.60;;;;;;;;;;5366983;26;20000;-68
2024/04/16 09:04:56;;;;;;;0.43;0.43;;;;;;;;;;5362294;26;19997;-69
2024/04/16 09:07:22;;;;;;;0.60;0.40;;;;;;;;;;5343769;26;20025;-69
2024/04/16 09:09:48;;;;;;;1.38;0.70;;;;;;;;;;5362067;26;20000;-69
2024/04/16 09:12:14;;;;;;;1.05;0.60;;;;;;;;;;5363844;26;20019;-69
2024/04/16 09:14:40;;;;;;;2.17;0.95;;;;;;;;;;5357643;26;20004;-69
2024/04/16 09:17:06;;;;;;;0.85;0.73;;;;;;;;;;5364547;26;20015;-70
2024/04/16 09:19:32;;;;;;;1.80;0.70;;;;;;;;;;5350732;26;20016;-69
2024/04/16 09:21:59;;;;;;;2.10;1.02;;;;;;;;;;5354857;26;20021;-69
2024/04/16 09:24:25;;;;;;;1.05;0.80;;;;;;;;;;5344230;26;20045;-69
2024/04/16 09:26:51;;;;;;;2.90;1.15;;;;;;;;;;5355944;26;20001;-69
2024/04/16 09:29:24;;;;;;;2.28;1.10;;;;;;;;;;5364075;26;20398;-69
2024/04/16 09:32:03;;;;;;;1.08;0.57;;;;;;;;;;5364944;26;20099;-69
2024/04/16 09:34:29;;;;;;;1.48;1.25;;;;;;;;;;5363449;26;20425;-69
2024/04/16 09:36:55;;;;;;;1.38;0.30;;;;;;;;;;5361296;26;20098;-69
2024/04/16 09:39:22;;;;;;;2.33;0.70;;;;;;;;;;5353240;26;20008;-69
2024/04/16 09:41:48;;;;;;;1.05;0.40;;;;;;;;;;5355020;26;19993;-69
2024/04/16 09:44:18;;;;;;;1.30;0.40;;;;;;;;;;5352766;26;19997;-69
2024/04/16 09:46:47;;;;;;;0.50;0.40;;;;;;;;;;5355378;26;20400;-68
2024/04/16 09:49:14;;;;;;;1.13;0.55;;;;;;;;;;5357628;26;19996;-69
2024/04/16 09:51:40;;;;;;;0.45;0.40;;;;;;;;;;5364722;26;20031;-69
2024/04/16 09:54:06;;;;;;;0.40;0.38;;;;;;;;;;5368395;26;20044;-69
2024/04/16 09:56:33;;;;;;;0.65;0.30;;;;;;;;;;5362602;26;20020;-69
2024/04/16 09:59:01;;;;;;;1.30;0.50;;;;;;;;;;5367569;26;20009;-69
2024/04/16 10:01:28;;;;;;;1.88;0.45;;;;;;;;;;5363577;26;20277;-69
2024/04/16 10:03:54;;;;;;;1.08;0.50;;;;;;;;;;5365058;26;20011;-69
2024/04/16 10:06:20;;;;;;;1.65;0.45;;;;;;;;;;5371133;26;19996;-69
2024/04/16 10:08:48;;;;;;;1.27;0.50;;;;;;;;;;5345936;26;20011;-69
2024/04/16 10:11:15;;;;;;;0.70;0.40;;;;;;;;;;5341044;26;20393;-69
2024/04/16 10:13:41;;;;;;;2.40;0.82;;;;;;;;;;5364358;26;20041;-69
2024/04/16 10:16:15;;;;;;;0.93;0.43;;;;;;;;;;5361447;26;19996;-69
2024/04/16 10:18:41;;;;;;;1.20;0.47;;;;;;;;;;5351908;26;20100;-69
2024/04/16 10:21:10;;;;;;;1.80;0.63;;;;;;;;;;5349204;26;20004;-69
2024/04/16 10:23:38;;;;;;;1.17;0.68;;;;;;;;;;5357692;26;20082;-70
2024/04/16 10:26:05;;;;;;;1.95;0.70;;;;;;;;;;5361626;26;20075;-69
2024/04/16 10:28:33;;;;;;;0.80;0.50;;;;;;;;;;5356335;26;20379;-69
2024/04/16 10:31:00;;;;;;;1.00;0.50;;;;;;;;;;5366670;26;20035;-69
2024/04/16 10:33:27;;;;;;;0.90;0.50;;;;;;;;;;5371188;26;20207;-69
2024/04/16 10:35:56;;;;;;;0.57;0.40;;;;;;;;;;5361036;26;20011;-69
2024/04/16 10:38:24;;;;;;;2.25;0.80;;;;;;;;;;5359415;26;20027;-69
2024/04/16 10:40:54;;;;;;;0.77;0.50;;;;;;;;;;5359904;26;19996;-69
2024/04/16 10:43:27;;;;;;;0.63;0.52;;;;;;;;;;5359398;26;20658;-68
2024/04/16 10:45:53;;;;;;;0.63;0.50;;;;;;;;;;5363417;26;20004;-69
2024/04/16 10:48:19;;;;;;;1.50;0.63;;;;;;;;;;5361445;26;20003;-69
2024/04/16 10:50:46;;;;;;;1.52;0.60;;;;;;;;;;5369855;26;20011;-69
2024/04/16 10:53:13;;;;;;;1.50;0.60;;;;;;;;;;5363952;26;20095;-69
2024/04/16 10:55:40;;;;;;;2.97;0.70;;;;;;;;;;5367678;26;20103;-69
2024/04/16 10:58:07;;;;;;;1.10;0.65;;;;;;;;;;5368704;26;19996;-69
2024/04/16 11:00:33;;;;;;;1.00;0.70;;;;;;;;;;5353173;26;20015;-69
2024/04/16 11:03:01;;;;;;;2.70;0.80;;;;;;;;;;5367112;26;20000;-69
2024/04/16 11:05:27;;;;;;;0.70;0.60;;;;;;;;;;5368618;26;20010;-69
2024/04/16 11:07:53;;;;;;;1.00;0.47;;;;;;;;;;5369739;26;20008;-70
2024/04/16 11:10:19;;;;;;;1.48;0.65;;;;;;;;;;5362891;26;20099;-69
2024/04/16 11:12:45;;;;;;;1.70;0.70;;;;;;;;;;5363097;26;20098;-69
2024/04/16 11:15:11;;;;;;;1.15;0.88;;;;;;;;;;5359191;26;20224;-69
2024/04/16 11:17:36;;;;;;;1.08;0.65;;;;;;;;;;5367269;26;20001;-70
2024/04/16 11:20:03;;;;;;;0.85;0.75;;;;;;;;;;5370771;26;20118;-69
2024/04/16 11:22:31;;;;;;;2.75;0.65;;;;;;;;;;5357072;26;20129;-68
2024/04/16 11:24:57;;;;;;;0.68;0.60;;;;;;;;;;5367796;26;20435;-69
2024/04/16 11:27:23;;;;;;;1.38;0.80;;;;;;;;;;5367206;26;20000;-68
2024/04/16 11:29:49;;;;;;;1.98;1.05;;;;;;;;;;5354538;26;20541;-69
2024/04/16 11:32:16;;;;;;;1.98;0.95;;;;;;;;;;5368782;26;20146;-68
2024/04/16 11:34:46;;;;;;;3.08;0.90;;;;;;;;;;5367658;26;20333;-68
2024/04/16 11:37:13;;;;;;;1.55;0.82;;;;;;;;;;5370209;26;20031;-69
2024/04/16 11:39:39;;;;;;;0.95;0.80;;;;;;;;;;5359123;26;20437;-68
2024/04/16 11:42:05;;;;;;;2.60;1.17;;;;;;;;;;5368338;26;20007;-68
2024/04/16 11:44:33;;;;;;;2.08;1.10;;;;;;;;;;5362311;26;20011;-69
2024/04/16 11:46:59;;;;;;;2.25;1.00;;;;;;;;;;5357529;26;20000;-69
2024/04/16 11:49:25;;;;;;;2.55;1.13;;;;;;;;;;5366371;26;20036;-69
2024/04/16 11:51:51;;;;;;;1.27;0.95;;;;;;;;;;5368294;26;20000;-70
2024/04/16 11:54:17;;;;;;;1.73;0.88;;;;;;;;;;5367739;26;20301;-69
2024/04/16 11:56:43;;;;;;;1.23;0.93;;;;;;;;;;5358947;26;20203;-71
2024/04/16 11:59:09;;;;;;;1.25;0.88;;;;;;;;;;5362459;26;20000;-70
2024/04/16 12:01:35;;;;;;;3.80;1.05;;;;;;;;;;5359176;26;20148;-70
2024/04/16 12:04:01;;;;;;;2.00;0.80;;;;;;;;;;5363217;26;20110;-71
2024/04/16 12:06:27;;;;;;;0.88;0.45;;;;;;;;;;5363391;26;20000;-70
2024/04/16 12:08:53;;;;;;;0.20;0.20;;;;;;;;;;5353486;26;20012;-71
2024/04/16 12:11:19;;;;;;;0.35;0.10;;;;;;;;;;5352560;26;20001;-69
2024/04/16 12:13:45;;;;;;;0.82;0.28;;;;;;;;;;5362809;26;20074;-70
2024/04/16 12:16:11;;;;;;;0.38;0.20;;;;;;;;;;5339308;26;20032;-70
2024/04/16 12:18:37;;;;;;;0.90;0.30;;;;;;;;;;5357279;26;20075;-70
2024/04/16 12:21:03;;;;;;;1.52;0.10;;;;;;;;;;5369973;26;19996;-70
2024/04/16 12:23:29;;;;;;;0.60;0.10;;;;;;;;;;5367308;26;20002;-71
2024/04/16 12:25:55;;;;;;;0.40;0.10;;;;;;;;;;5363860;26;19996;-72
2024/04/16 12:28:21;;;;;;;0.90;0.20;;;;;;;;;;5358804;26;19997;-70
2024/04/16 12:30:46;;;;;;;0.70;0.30;;;;;;;;;;5355957;26;20015;-71
2024/04/16 12:33:12;;;;;;;0.55;0.30;;;;;;;;;;5354097;26;20020;-72
2024/04/16 12:35:38;;;;;;;0.63;0.30;;;;;;;;;;5361612;26;20020;-71
2024/04/16 12:38:04;;;;;;;0.63;0.40;;;;;;;;;;5367453;26;20040;-71
2024/04/16 12:40:30;;;;;;;0.77;0.30;;;;;;;;;;5369876;26;20194;-71
2024/04/16 12:42:56;;;;;;;1.10;0.45;;;;;;;;;;5365213;26;19997;-71
2024/04/16 12:45:22;;;;;;;0.50;0.30;;;;;;;;;;5351256;26;20037;-71
2024/04/16 12:47:48;;;;;;;1.25;0.77;;;;;;;;;;5367247;26;20409;-71
2024/04/16 12:50:14;;;;;;;1.15;0.73;;;;;;;;;;5364404;26;20000;-71
2024/04/16 12:52:41;;;;;;;0.60;0.50;;;;;;;;;;5358981;26;20000;-70
2024/04/16 12:55:07;;;;;;;0.45;0.43;;;;;;;;;;5362277;26;20305;-70
2024/04/16 12:57:32;;;;;;;0.40;0.40;;;;;;;;;;5356889;26;20016;-71
2024/04/16 12:59:58;;;;;;;1.30;0.80;;;;;;;;;;5350878;26;20031;-71
2024/04/16 13:02:24;;;;;;;1.13;0.80;;;;;;;;;;5351416;26;20378;-71
2024/04/16 13:04:50;;;;;;;2.38;0.80;;;;;;;;;;5358864;26;20011;-71
2024/04/16 13:07:17;;;;;;;2.85;1.00;;;;;;;;;;5358275;26;20020;-71
2024/04/16 13:09:43;;;;;;;1.10;0.80;;;;;;;;;;5349378;26;20001;-71
2024/04/16 13:12:09;;;;;;;0.68;0.50;;;;;;;;;;5367660;26;20047;-71
2024/04/16 13:14:35;;;;;;;4.55;1.23;;;;;;;;;;5352953;26;20035;-72
2024/04/16 13:17:01;;;;;;;1.50;0.90;;;;;;;;;;5360393;26;20008;-70
2024/04/16 13:19:27;;;;;;;1.10;0.70;;;;;;;;;;5376707;26;20015;-71
2024/04/16 13:21:53;;;;;;;6.07;0.95;;;;;;;;;;5367432;26;20192;-71
2024/04/16 13:24:19;;;;;;;2.47;0.63;;;;;;;;;;5367536;26;20012;-71
2024/04/16 13:26:45;;;;;;;1.63;0.90;;;;;;;;;;5369290;26;20015;-71
2024/04/16 13:29:11;;;;;;;1.08;0.77;;;;;;;;;;5366819;26;20358;-71
2024/04/16 13:31:37;;;;;;;1.10;0.80;;;;;;;;;;5375746;26;20036;-71
2024/04/16 13:34:02;;;;;;;2.13;0.63;;;;;;;;;;5375765;26;20015;-71
2024/04/16 13:36:28;;;;;;;1.45;0.93;;;;;;;;;;5374487;26;20430;-71
2024/04/16 13:38:54;;;;;;;1.45;0.80;;;;;;;;;;5371975;26;20007;-72
2024/04/16 13:41:20;;;;;;;0.98;0.80;;;;;;;;;;5368039;26;20004;-72
2024/04/16 13:43:46;;;;;;;3.75;0.80;;;;;;;;;;5368626;26;20124;-71
2024/04/16 13:46:12;;;;;;;1.60;0.80;;;;;;;;;;5360745;26;20129;-71
2024/04/16 13:48:38;;;;;;;0.68;0.30;;;;;;;;;;5375420;26;20098;-71
2024/04/16 13:51:04;;;;;;;1.63;0.70;;;;;;;;;;5363375;26;20024;-72
2024/04/16 13:53:30;;;;;;;1.50;0.65;;;;;;;;;;5358968;26;20036;-71
2024/04/16 13:55:57;;;;;;;0.85;0.40;;;;;;;;;;5364790;26;20034;-72
2024/04/16 13:58:23;;;;;;;0.45;0.40;;;;;;;;;;5365835;26;20464;-72
2024/04/16 14:00:49;;;;;;;0.38;0.25;;;;;;;;;;5356837;26;20004;-72
2024/04/16 14:03:15;;;;;;;0.25;0.20;;;;;;;;;;5371711;26;20016;-71
2024/04/16 14:05:41;;;;;;;1.35;0.30;;;;;;;;;;5362579;26;20011;-71
2024/04/16 14:08:07;;;;;;;0.20;0.20;;;;;;;;;;5360351;26;20041;-71
2024/04/16 14:10:33;;;;;;;0.85;0.35;;;;;;;;;;5367516;26;20162;-71
2024/04/16 14:12:58;;;;;;;2.05;0.20;;;;;;;;;;5369562;26;20463;-71
2024/04/16 14:15:27;;;;;;;0.25;0.20;;;;;;;;;;5364735;26;20000;-71
2024/04/16 14:17:53;;;;;;;0.32;0.30;;;;;;;;;;5357195;26;20363;-71
2024/04/16 14:20:20;;;;;;;0.40;0.38;;;;;;;;;;5369168;26;20099;-71
2024/04/16 14:22:45;;;;;;;0.20;0.20;;;;;;;;;;5355022;26;20018;-71
2024/04/16 14:25:11;;;;;;;0.75;0.32;;;;;;;;;;5362643;26;20015;-71
2024/04/16 14:27:37;;;;;;;0.63;0.30;;;;;;;;;;5351193;26;20009;-71
2024/04/16 14:30:04;;;;;;;0.68;0.45;;;;;;;;;;5361941;26;20008;-71
2024/04/16 14:32:30;;;;;;;0.82;0.50;;;;;;;;;;5361101;26;20055;-71
2024/04/16 14:34:56;;;;;;;0.20;0.20;;;;;;;;;;5362302;26;20459;-71
2024/04/16 14:37:21;;;;;;;0.65;0.40;;;;;;;;;;5345865;26;20032;-71
2024/04/16 14:39:47;;;;;;;1.02;0.47;;;;;;;;;;5351458;26;20415;-71